Elandra Spruce — V7JM5 — position and weather

sailwx.info

Track history (hours):
 
Tides and Currents Weather Stations Pressure Air Temp Water Temp Dewpoint Dewpoint Depression Visibility Wind Speed Wind Dir Waves Ship Positions

Elandra Spruce

Last reported at 2016-Aug-24 13:19 UTC. Time now 2016-Aug-24 19:44 UTC.
Position N 29°42' E 122°46'.

Length 183 m; draft 8 m.

Type: Tanker. MMSI: 538006719.

Date/timePositionNaut miles runAvg speedWind from/ knotsBaromVisibWave heightAir tempDewpointWater temp
2016-Aug-24 13:19N 29°42' E 122°46'810.2
2016-Aug-24 12:33N 29°40' E 122°37'1111.2
2016-Aug-24 11:33N 29°42' E 122°24'1312.8
2016-Aug-24 10:33N 29°50' E 122°13'9 9.0
2016-Aug-24 09:33N 29°46' E 122°04'0 0.0
2016-Aug-23 02:13N 29°45' E 122°04'3 4.2
2016-Aug-23 01:33N 29°48' E 122°05'8 8.3
2016-Aug-23 00:33N 29°48' E 122°15'8 8.4
2016-Aug-22 23:33N 29°44' E 122°23'1 0.2
2016-Aug-22 17:31N 29°45' E 122°24'1 1.2
2016-Aug-22 16:33N 29°44' E 122°24'11 8.6
2016-Aug-22 15:15N 29°39' E 122°36'2212.8
2016-Aug-22 13:33N 29°18' E 122°34'42913.8
2016-Aug-21 06:30N 22°34' E 119°52'  
2016-Aug-16 12:28N 01°15' E 104°05'1111.8
2016-Aug-16 11:33N 01°12' E 103°54'1110.6
2016-Aug-16 10:33N 01°07' E 103°45'7 0.2
2016-Aug-14 17:07N 01°13' E 103°49'0 0.1
2016-Aug-14 16:16N 01°13' E 103°49'0 0.0
2016-Aug-14 15:28N 01°13' E 103°49'0 0.0
2016-Aug-14 13:22N 01°13' E 103°49'  
Track history (hours):
 
Tides and Currents Weather Stations Pressure Air Temp Water Temp Dewpoint Dewpoint Depression Visibility Wind Speed Wind Dir Waves Ship Positions

Elandra Spruce

Last reported at 2016-Aug-24 13:19 UTC. Time now 2016-Aug-24 19:44 UTC.
Position N 29°42' E 122°46'.

Length 183 m; draft 8 m.

Type: Tanker. MMSI: 538006719.

Date/timePositionNaut miles runAvg speedWind from/ knotsBaromVisibWave heightAir tempDewpointWater temp
2016-Aug-24 13:19N 29°42' E 122°46'810.2
2016-Aug-24 12:33N 29°40' E 122°37'1111.2
2016-Aug-24 11:33N 29°42' E 122°24'1312.8
2016-Aug-24 10:33N 29°50' E 122°13'9 9.0
2016-Aug-24 09:33N 29°46' E 122°04'0 0.0
2016-Aug-23 02:13N 29°45' E 122°04'3 4.2
2016-Aug-23 01:33N 29°48' E 122°05'8 8.3
2016-Aug-23 00:33N 29°48' E 122°15'8 8.4
2016-Aug-22 23:33N 29°44' E 122°23'1 0.2
2016-Aug-22 17:31N 29°45' E 122°24'1 1.2
2016-Aug-22 16:33N 29°44' E 122°24'11 8.6
2016-Aug-22 15:15N 29°39' E 122°36'2212.8
2016-Aug-22 13:33N 29°18' E 122°34'42913.8
2016-Aug-21 06:30N 22°34' E 119°52'  
2016-Aug-16 12:28N 01°15' E 104°05'1111.8
2016-Aug-16 11:33N 01°12' E 103°54'1110.6
2016-Aug-16 10:33N 01°07' E 103°45'7 0.2
2016-Aug-14 17:07N 01°13' E 103°49'0 0.1
2016-Aug-14 16:16N 01°13' E 103°49'0 0.0
2016-Aug-14 15:28N 01°13' E 103°49'0 0.0
2016-Aug-14 13:22N 01°13' E 103°49'  

Dump ship's entire track history